Time;durP1;ratioP1;P1;durP2;ratioP2;P2;SDS_P1;SDS_P2;PMS_P1;PMS_P2;Temp;Humidity;BMP_temperature;BMP_pressure;BME280_temperature;BME280_humidity;BME280_pressure;Samples;Min_cycle;Max_cycle;Signal;HPM_P1;HPM_P2
2023/07/06 00:02:22;;;;;;;2.60;2.00;;;24.90;46.60;;;;;;4994877;28;20440;-68
2023/07/06 00:04:48;;;;;;;3.73;3.20;;;24.90;46.60;;;;;;4993595;28;20428;-69
2023/07/06 00:07:20;;;;;;;2.87;2.67;;;24.90;46.60;;;;;;4994740;28;20438;-66
2023/07/06 00:09:48;;;;;;;4.47;2.93;;;24.90;46.60;;;;;;4994866;28;20385;-69
2023/07/06 00:12:13;;;;;;;3.17;2.70;;;24.90;46.60;;;;;;4994777;28;20416;-69
2023/07/06 00:14:39;;;;;;;2.70;2.40;;;24.90;46.60;;;;;;4994836;28;20435;-67
2023/07/06 00:17:12;;;;;;;3.43;2.50;;;24.90;46.60;;;;;;4994593;28;20444;-69
2023/07/06 00:19:38;;;;;;;2.43;2.23;;;24.90;46.70;;;;;;4993361;28;20541;-68
2023/07/06 00:22:04;;;;;;;3.20;2.60;;;24.90;46.60;;;;;;4994546;28;20430;-68
2023/07/06 00:24:30;;;;;;;2.67;2.47;;;24.90;46.60;;;;;;4994546;28;20845;-67
2023/07/06 00:26:56;;;;;;;3.47;2.80;;;24.90;46.50;;;;;;4993931;28;20472;-68
2023/07/06 00:29:22;;;;;;;4.87;3.00;;;24.90;46.40;;;;;;4994082;28;20728;-68
2023/07/06 00:31:53;;;;;;;3.30;2.80;;;24.90;46.30;;;;;;4994411;28;20223;-68
2023/07/06 00:34:19;;;;;;;4.90;3.23;;;24.90;46.30;;;;;;4994329;28;20618;-69
2023/07/06 00:36:46;;;;;;;6.20;3.60;;;24.90;46.40;;;;;;4994321;28;20428;-69
2023/07/06 00:39:13;;;;;;;3.43;2.70;;;24.90;46.40;;;;;;4994298;28;20498;-69
2023/07/06 00:41:39;;;;;;;3.37;3.07;;;24.90;46.50;;;;;;4993240;28;20420;-69
2023/07/06 00:44:05;;;;;;;3.33;2.83;;;24.90;46.50;;;;;;4994197;28;20411;-68
2023/07/06 00:46:39;;;;;;;2.97;2.67;;;24.90;46.50;;;;;;4994039;28;20409;-68
2023/07/06 00:49:12;;;;;;;5.00;3.30;;;24.90;46.50;;;;;;4994062;28;20255;-68
2023/07/06 00:51:39;;;;;;;4.20;3.20;;;24.90;46.40;;;;;;4994038;28;20392;-68
2023/07/06 00:54:09;;;;;;;4.50;2.90;;;24.90;46.50;;;;;;4994345;28;20412;-68
2023/07/06 00:56:45;;;;;;;3.53;2.80;;;24.90;46.40;;;;;;4993900;28;20428;-68
2023/07/06 00:59:15;;;;;;;2.63;2.43;;;24.90;46.40;;;;;;4993927;28;20482;-69
2023/07/06 01:01:43;;;;;;;3.90;2.70;;;24.90;46.40;;;;;;4993831;28;20476;-67
2023/07/06 01:04:13;;;;;;;3.00;2.50;;;24.90;46.40;;;;;;4992527;28;20420;-68
2023/07/06 01:06:47;;;;;;;3.83;3.00;;;24.90;46.40;;;;;;4993997;28;20802;-68
2023/07/06 01:09:15;;;;;;;3.83;2.67;;;24.90;47.00;;;;;;4993923;28;20448;-69
2023/07/06 01:11:41;;;;;;;3.77;2.93;;;24.90;46.40;;;;;;4993806;28;20411;-67
2023/07/06 01:14:12;;;;;;;4.20;3.00;;;24.90;46.40;;;;;;4993581;28;20500;-69
2023/07/06 01:17:01;;;;;;;3.10;2.50;;;24.90;46.30;;;;;;4993429;28;20929;-68
2023/07/06 01:19:57;;;;;;;3.27;2.97;;;24.90;46.20;;;;;;4993547;28;20492;-68
2023/07/06 01:22:55;;;;;;;3.50;2.90;;;24.90;46.10;;;;;;4993553;28;20392;-69
2023/07/06 01:25:52;;;;;;;3.63;2.83;;;24.80;46.00;;;;;;4957489;28;20414;-68
2023/07/06 01:28:32;;;;;;;3.87;2.90;;;24.80;46.00;;;;;;4993208;28;20471;-68
2023/07/06 01:31:13;;;;;;;3.90;2.87;;;24.80;46.00;;;;;;4993571;28;20792;-69
2023/07/06 01:34:15;;;;;;;3.93;2.90;;;24.80;46.00;;;;;;4993318;28;20397;-69
2023/07/06 01:36:49;;;;;;;2.60;2.40;;;24.80;46.10;;;;;;4993149;28;20428;-68
2023/07/06 01:39:17;;;;;;;3.10;2.80;;;24.80;46.20;;;;;;4993212;28;20491;-68
2023/07/06 01:41:43;;;;;;;2.63;2.43;;;24.80;46.20;;;;;;4993092;28;20407;-69
2023/07/06 01:44:12;;;;;;;3.00;2.57;;;24.80;46.30;;;;;;4993089;28;20924;-69
2023/07/06 01:46:48;;;;;;;4.67;2.47;;;24.80;46.30;;;;;;4992920;28;20443;-69
2023/07/06 01:49:14;;;;;;;3.77;3.37;;;24.80;46.30;;;;;;4992936;28;21087;-69
2023/07/06 01:51:56;;;;;;;3.00;2.60;;;24.80;46.30;;;;;;4993219;28;20515;-69
2023/07/06 01:54:29;;;;;;;3.00;2.50;;;24.80;46.40;;;;;;4992973;28;20758;-69
2023/07/06 01:57:04;;;;;;;3.77;2.97;;;24.80;46.40;;;;;;4991774;28;20459;-68
2023/07/06 01:59:32;;;;;;;4.90;3.40;;;24.80;46.30;;;;;;4992889;28;20415;-69
2023/07/06 02:02:01;;;;;;;4.47;3.33;;;24.80;46.30;;;;;;4992675;28;20424;-69
2023/07/06 02:04:32;;;;;;;3.33;2.40;;;24.80;46.30;;;;;;4993051;28;20920;-68
2023/07/06 02:07:01;;;;;;;4.40;3.33;;;24.80;46.30;;;;;;4992659;28;20518;-69
2023/07/06 02:09:27;;;;;;;3.27;2.53;;;24.80;46.40;;;;;;4993003;28;20439;-68
2023/07/06 02:11:53;;;;;;;2.90;2.60;;;24.80;46.30;;;;;;4992726;28;20885;-69
2023/07/06 02:14:19;;;;;;;3.33;2.73;;;24.80;46.30;;;;;;4992775;28;20176;-68
2023/07/06 02:16:45;;;;;;;3.47;2.70;;;24.80;46.30;;;;;;4992602;28;20247;-69
2023/07/06 02:19:11;;;;;;;3.53;2.77;;;24.80;46.30;;;;;;4992584;28;20412;-69
2023/07/06 02:21:38;;;;;;;3.30;3.00;;;24.80;46.20;;;;;;4992553;28;20786;-69
2023/07/06 02:24:06;;;;;;;3.50;3.20;;;24.80;46.20;;;;;;4992800;28;20432;-68
2023/07/06 02:26:32;;;;;;;3.20;2.67;;;24.80;46.20;;;;;;4992439;28;20432;-68
2023/07/06 02:28:57;;;;;;;4.20;3.00;;;24.80;46.30;;;;;;4992432;28;20804;-68
2023/07/06 02:31:23;;;;;;;3.27;2.70;;;24.80;46.20;;;;;;4992516;28;20180;-68
2023/07/06 02:33:48;;;;;;;5.80;3.23;;;24.80;46.20;;;;;;4992512;28;20169;-69
2023/07/06 02:36:16;;;;;;;4.60;3.50;;;24.80;46.20;;;;;;4992388;28;20210;-68
2023/07/06 02:38:42;;;;;;;4.30;3.17;;;24.80;46.10;;;;;;4992439;28;20256;-68
2023/07/06 02:41:07;;;;;;;5.23;3.17;;;24.80;45.90;;;;;;4992436;28;20495;-68
2023/07/06 02:43:33;;;;;;;5.10;3.20;;;24.80;45.80;;;;;;4992473;28;20181;-68
2023/07/06 02:45:59;;;;;;;3.27;2.90;;;24.70;45.60;;;;;;4992376;28;20177;-68
2023/07/06 02:48:25;;;;;;;3.57;3.20;;;24.70;45.60;;;;;;4992468;28;20211;-68
2023/07/06 02:50:51;;;;;;;3.93;3.10;;;24.70;45.50;;;;;;4993494;28;20420;-68
2023/07/06 02:53:18;;;;;;;3.10;2.67;;;24.70;45.50;;;;;;4996255;28;20181;-69
2023/07/06 02:55:47;;;;;;;3.37;2.87;;;24.70;45.50;;;;;;4996145;28;20455;-68
2023/07/06 02:58:13;;;;;;;4.23;2.90;;;24.70;45.40;;;;;;4996084;28;21037;-68
2023/07/06 03:00:39;;;;;;;3.40;2.50;;;24.70;45.40;;;;;;4996020;28;20436;-68
2023/07/06 03:03:07;;;;;;;3.63;2.70;;;24.60;45.40;;;;;;4996424;28;20247;-68
2023/07/06 03:05:37;;;;;;;6.30;3.37;;;24.60;45.40;;;;;;4996032;28;20173;-68
2023/07/06 03:08:05;;;;;;;7.40;3.50;;;24.60;45.50;;;;;;4995838;28;20459;-68
2023/07/06 03:10:32;;;;;;;3.80;2.93;;;24.60;46.10;;;;;;4995903;28;20543;-69
2023/07/06 03:12:58;;;;;;;4.40;2.73;;;24.60;45.50;;;;;;4995895;28;20469;-68
2023/07/06 03:15:24;;;;;;;3.50;2.80;;;24.60;45.50;;;;;;4995856;28;20993;-68
2023/07/06 03:17:51;;;;;;;3.23;2.60;;;24.60;45.50;;;;;;4996207;28;20251;-68
2023/07/06 03:20:19;;;;;;;3.17;2.87;;;24.60;45.50;;;;;;4995783;28;20781;-69
2023/07/06 03:22:51;;;;;;;4.03;2.83;;;24.60;45.50;;;;;;4995708;28;20431;-68
2023/07/06 03:25:18;;;;;;;3.60;3.30;;;24.60;45.50;;;;;;4994694;28;20420;-69
2023/07/06 03:27:46;;;;;;;4.87;3.63;;;24.60;45.50;;;;;;4994227;28;20462;-68
2023/07/06 03:30:14;;;;;;;4.83;3.10;;;24.60;45.50;;;;;;4995590;28;20416;-68
2023/07/06 03:32:40;;;;;;;4.20;3.30;;;24.60;45.50;;;;;;4995501;28;20905;-69
2023/07/06 03:35:08;;;;;;;3.40;3.10;;;24.60;45.50;;;;;;4995511;28;20415;-68
2023/07/06 03:37:33;;;;;;;3.30;2.70;;;24.60;45.50;;;;;;4995367;28;20189;-68
2023/07/06 03:39:59;;;;;;;3.03;2.53;;;24.60;45.50;;;;;;4995387;28;20424;-68
2023/07/06 03:42:25;;;;;;;5.27;3.30;;;24.60;45.50;;;;;;4995288;28;20263;-69
2023/07/06 03:44:55;;;;;;;3.70;2.80;;;24.60;45.40;;;;;;4995363;28;20177;-69
2023/07/06 03:47:23;;;;;;;4.13;3.03;;;24.60;45.30;;;;;;4995371;28;20213;-69
2023/07/06 03:49:51;;;;;;;3.60;3.30;;;24.60;45.30;;;;;;4995201;28;20435;-68
2023/07/06 03:52:17;;;;;;;4.10;2.80;;;24.60;45.30;;;;;;4995189;28;20983;-68
2023/07/06 03:54:44;;;;;;;4.53;3.30;;;24.60;45.20;;;;;;4995154;28;20405;-68
2023/07/06 03:57:11;;;;;;;5.00;3.30;;;24.50;45.20;;;;;;4994998;28;20440;-69
2023/07/06 03:59:38;;;;;;;4.70;2.80;;;24.50;45.20;;;;;;4995069;28;21005;-69
2023/07/06 04:02:05;;;;;;;2.90;2.70;;;24.50;45.20;;;;;;4993844;28;20438;-69
2023/07/06 04:04:32;;;;;;;3.90;3.23;;;24.50;45.20;;;;;;4994841;28;20504;-68
2023/07/06 04:06:58;;;;;;;5.07;2.77;;;24.50;45.20;;;;;;4994849;28;20524;-69
2023/07/06 04:09:26;;;;;;;3.70;2.80;;;24.50;45.20;;;;;;4994751;28;20465;-69
2023/07/06 04:11:52;;;;;;;2.97;2.70;;;24.50;45.20;;;;;;4995083;28;20173;-69
2023/07/06 04:14:24;;;;;;;4.60;2.80;;;24.50;45.20;;;;;;4995050;28;20474;-68
2023/07/06 04:16:51;;;;;;;6.33;2.77;;;24.50;45.20;;;;;;4994686;28;20188;-69
2023/07/06 04:19:17;;;;;;;4.90;3.63;;;24.50;45.30;;;;;;4994436;28;20419;-68
2023/07/06 04:21:42;;;;;;;4.40;3.03;;;24.50;45.30;;;;;;4994651;28;20412;-68
2023/07/06 04:24:08;;;;;;;5.13;3.40;;;24.50;45.30;;;;;;4994572;28;20231;-68
2023/07/06 04:26:34;;;;;;;5.67;3.37;;;24.50;45.30;;;;;;4994479;28;20674;-68
2023/07/06 04:28:59;;;;;;;3.27;2.80;;;24.50;45.30;;;;;;4993275;28;20211;-68
2023/07/06 04:31:25;;;;;;;3.80;2.97;;;24.50;45.40;;;;;;4994713;28;20721;-68
2023/07/06 04:33:50;;;;;;;4.10;3.20;;;24.50;45.60;;;;;;4994252;28;20196;-68
2023/07/06 04:36:17;;;;;;;4.77;2.80;;;24.50;45.80;;;;;;4993422;28;20180;-68
2023/07/06 04:38:43;;;;;;;4.57;3.00;;;24.50;45.90;;;;;;4994295;28;20240;-68
2023/07/06 04:41:09;;;;;;;4.33;3.20;;;24.50;45.90;;;;;;4994198;28;20941;-68
2023/07/06 04:43:35;;;;;;;4.40;2.90;;;24.50;45.90;;;;;;4994521;28;20450;-68
2023/07/06 04:46:00;;;;;;;3.37;2.97;;;24.50;46.00;;;;;;4993896;28;20499;-67
2023/07/06 04:48:26;;;;;;;2.73;2.17;;;24.60;46.00;;;;;;4992722;28;20208;-67
2023/07/06 04:50:53;;;;;;;3.53;2.70;;;24.60;46.10;;;;;;4994131;28;20169;-68
2023/07/06 04:53:20;;;;;;;3.60;2.60;;;24.60;46.20;;;;;;4994017;28;20165;-69
2023/07/06 04:55:46;;;;;;;2.80;2.53;;;24.60;46.20;;;;;;4993979;28;20405;-67
2023/07/06 04:58:12;;;;;;;3.87;3.03;;;24.60;46.20;;;;;;4993879;28;20980;-67
2023/07/06 05:00:39;;;;;;;4.13;2.93;;;24.60;46.20;;;;;;4993902;28;20444;-68
2023/07/06 05:03:07;;;;;;;3.27;2.80;;;24.60;46.20;;;;;;4993849;28;20181;-69
2023/07/06 05:05:40;;;;;;;3.93;3.03;;;24.70;46.30;;;;;;4992722;28;20412;-68
2023/07/06 05:08:07;;;;;;;2.73;2.30;;;24.70;46.40;;;;;;4993882;28;20463;-66
2023/07/06 05:10:34;;;;;;;2.73;2.43;;;24.70;46.40;;;;;;4993746;28;20447;-68
2023/07/06 05:13:01;;;;;;;3.20;2.20;;;24.70;46.60;;;;;;4993461;28;20408;-67
2023/07/06 05:15:26;;;;;;;3.20;2.80;;;24.70;46.50;;;;;;4993445;28;20457;-67
2023/07/06 05:17:53;;;;;;;5.60;2.93;;;24.70;46.50;;;;;;4993549;28;20451;-68
2023/07/06 05:20:20;;;;;;;4.13;2.97;;;24.70;46.50;;;;;;4992204;28;20251;-69
2023/07/06 05:22:48;;;;;;;3.10;2.80;;;24.80;46.60;;;;;;4993474;28;20416;-67
2023/07/06 05:25:15;;;;;;;3.70;2.53;;;24.80;46.60;;;;;;4993429;28;20870;-67
2023/07/06 05:27:41;;;;;;;3.50;2.57;;;24.80;46.60;;;;;;4992231;28;20456;-68
2023/07/06 05:30:07;;;;;;;3.00;2.33;;;24.80;46.60;;;;;;4993437;28;20413;-68
2023/07/06 05:32:33;;;;;;;3.33;2.80;;;24.80;47.20;;;;;;4993337;28;20427;-67
2023/07/06 05:34:58;;;;;;;3.43;2.30;;;24.80;46.60;;;;;;4993889;28;20416;-66
2023/07/06 05:37:25;;;;;;;3.07;2.13;;;24.80;46.60;;;;;;4993904;28;20192;-68
2023/07/06 05:39:50;;;;;;;5.70;2.93;;;24.80;46.50;;;;;;4994512;28;20169;-67
2023/07/06 05:42:17;;;;;;;3.40;2.50;;;24.80;46.50;;;;;;4994598;28;20404;-68
2023/07/06 05:44:44;;;;;;;4.57;2.80;;;24.80;46.50;;;;;;4993187;28;20173;-68
2023/07/06 05:47:09;;;;;;;3.60;2.93;;;24.90;46.50;;;;;;4993221;28;20477;-68
2023/07/06 05:49:36;;;;;;;4.10;2.20;;;24.80;46.60;;;;;;4993221;28;20921;-68
2023/07/06 05:52:01;;;;;;;3.30;2.70;;;24.90;46.60;;;;;;4993059;28;20177;-69
2023/07/06 05:54:27;;;;;;;3.23;2.93;;;24.90;46.60;;;;;;4992913;28;20448;-68
2023/07/06 05:56:55;;;;;;;4.63;2.60;;;24.90;46.50;;;;;;4992740;28;20435;-69
2023/07/06 05:59:24;;;;;;;3.33;2.80;;;24.90;46.50;;;;;;4992916;28;20215;-69
2023/07/06 06:01:50;;;;;;;3.00;2.27;;;24.90;46.50;;;;;;4991627;28;20459;-68
2023/07/06 06:04:16;;;;;;;3.43;2.40;;;24.90;46.50;;;;;;4992838;28;20495;-69
2023/07/06 06:06:50;;;;;;;3.60;2.30;;;24.90;46.50;;;;;;4991547;28;21136;-68
2023/07/06 06:09:16;;;;;;;2.60;2.20;;;24.90;46.50;;;;;;4992639;28;20196;-68
2023/07/06 06:11:42;;;;;;;3.77;2.17;;;24.90;46.60;;;;;;4992776;28;20488;-68
2023/07/06 06:14:08;;;;;;;4.70;2.30;;;24.90;46.60;;;;;;4992687;28;20165;-68
2023/07/06 06:16:33;;;;;;;2.57;1.90;;;24.90;46.50;;;;;;4991442;28;20224;-68
2023/07/06 06:19:01;;;;;;;2.90;2.57;;;24.90;46.60;;;;;;4992777;28;20432;-68
2023/07/06 06:21:27;;;;;;;2.50;2.30;;;24.90;46.60;;;;;;4992865;28;20187;-67
2023/07/06 06:23:53;;;;;;;3.33;2.43;;;24.90;46.70;;;;;;4992588;28;20412;-69
2023/07/06 06:26:19;;;;;;;2.37;2.07;;;24.90;46.80;;;;;;4991803;28;20479;-68
2023/07/06 06:28:45;;;;;;;4.50;3.20;;;24.90;46.80;;;;;;4992518;28;20543;-68
2023/07/06 06:31:12;;;;;;;4.00;2.37;;;24.90;46.80;;;;;;4992515;28;20562;-68
2023/07/06 06:33:37;;;;;;;3.13;2.40;;;24.90;46.80;;;;;;4992612;28;20161;-68
2023/07/06 06:36:03;;;;;;;2.80;2.30;;;24.90;46.80;;;;;;4992820;28;20412;-67
2023/07/06 06:38:34;;;;;;;2.37;2.03;;;24.90;46.80;;;;;;4992444;28;20196;-67
2023/07/06 06:41:02;;;;;;;2.27;2.07;;;24.90;46.90;;;;;;4991311;28;20926;-68
2023/07/06 06:43:28;;;;;;;3.33;2.50;;;24.90;46.90;;;;;;4992424;28;20416;-68
2023/07/06 06:45:53;;;;;;;2.80;2.17;;;24.90;46.90;;;;;;4992433;28;20898;-68
2023/07/06 06:48:19;;;;;;;2.63;1.90;;;24.90;46.90;;;;;;4992232;28;20204;-68
2023/07/06 06:50:45;;;;;;;2.13;1.80;;;24.90;46.90;;;;;;4992395;28;20669;-68
2023/07/06 06:53:11;;;;;;;4.00;2.43;;;24.90;46.90;;;;;;4992277;28;20408;-68
2023/07/06 06:55:37;;;;;;;2.70;2.27;;;24.90;46.90;;;;;;4992302;28;20184;-67
2023/07/06 06:58:03;;;;;;;4.10;2.20;;;24.90;46.90;;;;;;4990886;28;20811;-68
2023/07/06 07:00:29;;;;;;;2.07;1.70;;;25.00;47.00;;;;;;4992301;28;20428;-68
2023/07/06 07:02:57;;;;;;;2.60;2.30;;;25.00;47.00;;;;;;4992287;28;20252;-68
2023/07/06 07:05:23;;;;;;;3.60;2.27;;;25.00;47.50;;;;;;4992267;28;20411;-68
2023/07/06 07:07:49;;;;;;;2.50;1.80;;;25.00;46.90;;;;;;4992070;28;21019;-68
2023/07/06 07:10:15;;;;;;;2.60;2.00;;;25.00;46.90;;;;;;4992265;28;20169;-68
2023/07/06 07:12:42;;;;;;;2.70;2.50;;;25.00;46.90;;;;;;4992241;28;20467;-68
2023/07/06 07:15:10;;;;;;;2.00;1.70;;;25.00;46.90;;;;;;4992229;28;20177;-67
2023/07/06 07:17:37;;;;;;;2.40;2.17;;;25.00;47.00;;;;;;4992049;28;20440;-68
2023/07/06 07:20:03;;;;;;;3.60;2.23;;;25.00;47.00;;;;;;4992367;28;20419;-68
2023/07/06 07:22:29;;;;;;;2.40;2.10;;;25.00;47.00;;;;;;4992081;28;20825;-67
2023/07/06 07:24:54;;;;;;;2.13;1.93;;;25.00;47.00;;;;;;4992119;28;20462;-68
2023/07/06 07:27:20;;;;;;;2.50;2.30;;;25.00;47.10;;;;;;4990628;28;20284;-68
2023/07/06 07:29:47;;;;;;;2.40;2.20;;;25.00;47.00;;;;;;4992127;28;20305;-68
2023/07/06 07:32:13;;;;;;;2.63;2.00;;;25.00;47.00;;;;;;4992157;28;20185;-68
2023/07/06 07:34:40;;;;;;;3.00;2.07;;;25.00;47.00;;;;;;4992014;28;21016;-67
2023/07/06 07:37:10;;;;;;;4.17;2.13;;;25.00;47.00;;;;;;4993305;28;20786;-68
2023/07/06 07:39:36;;;;;;;3.50;2.10;;;25.00;47.00;;;;;;4995557;28;20787;-67
2023/07/06 07:42:03;;;;;;;3.13;2.23;;;25.00;47.00;;;;;;4994343;28;20458;-68
2023/07/06 07:44:29;;;;;;;2.67;2.40;;;25.00;47.00;;;;;;4995572;28;20823;-68
2023/07/06 07:46:55;;;;;;;2.67;2.20;;;25.00;47.00;;;;;;4995276;28;20431;-67
2023/07/06 07:49:21;;;;;;;2.43;2.00;;;25.00;47.10;;;;;;4995173;28;20192;-68
2023/07/06 07:51:46;;;;;;;2.27;1.83;;;25.00;47.10;;;;;;4995123;28;20412;-69
2023/07/06 07:54:12;;;;;;;4.50;1.87;;;25.00;47.10;;;;;;4995002;28;20673;-68
2023/07/06 07:56:38;;;;;;;2.93;2.13;;;25.00;47.10;;;;;;4995051;28;20185;-68
2023/07/06 07:59:03;;;;;;;1.87;1.77;;;25.00;47.10;;;;;;4995022;28;20459;-67
2023/07/06 08:01:30;;;;;;;2.87;2.17;;;25.00;47.00;;;;;;4993693;28;20216;-69
2023/07/06 08:03:57;;;;;;;4.30;2.00;;;25.00;47.10;;;;;;4994981;28;20247;-69
2023/07/06 08:06:23;;;;;;;2.00;1.70;;;25.00;47.00;;;;;;4993528;28;20428;-69
2023/07/06 08:08:48;;;;;;;2.47;2.23;;;25.00;47.00;;;;;;4994459;28;20456;-69
2023/07/06 08:11:22;;;;;;;2.10;1.63;;;25.00;47.00;;;;;;4994113;28;20462;-68
2023/07/06 08:13:53;;;;;;;2.57;2.03;;;25.00;47.00;;;;;;4994846;28;20532;-68
2023/07/06 08:16:20;;;;;;;2.30;2.10;;;25.00;47.00;;;;;;4994643;28;20420;-68
2023/07/06 08:18:48;;;;;;;2.20;2.00;;;25.00;47.10;;;;;;4994697;28;20495;-68
2023/07/06 08:21:14;;;;;;;3.63;2.40;;;25.00;47.00;;;;;;4994624;28;20444;-69
2023/07/06 08:23:47;;;;;;;3.00;2.03;;;25.00;47.10;;;;;;4994661;28;20444;-68
2023/07/06 08:26:13;;;;;;;2.47;1.90;;;25.00;47.10;;;;;;4994607;28;20161;-69
2023/07/06 08:28:39;;;;;;;2.43;1.80;;;25.00;47.10;;;;;;4994433;28;20452;-67
2023/07/06 08:31:12;;;;;;;2.50;1.80;;;25.00;47.10;;;;;;4994432;28;20271;-69
2023/07/06 08:33:38;;;;;;;2.00;1.70;;;25.00;47.10;;;;;;4994470;28;20471;-69
2023/07/06 08:36:06;;;;;;;1.90;1.70;;;25.00;47.10;;;;;;4994379;28;20424;-68
2023/07/06 08:38:32;;;;;;;2.10;1.90;;;25.00;47.10;;;;;;4994272;28;20428;-69
2023/07/06 08:41:03;;;;;;;2.00;1.70;;;25.00;47.10;;;;;;4994297;28;20450;-68
2023/07/06 08:43:30;;;;;;;2.67;2.20;;;25.00;47.10;;;;;;4994322;28;20403;-68
2023/07/06 08:46:00;;;;;;;2.50;2.00;;;25.00;47.10;;;;;;4994240;28;20420;-68
2023/07/06 08:48:30;;;;;;;2.47;2.07;;;25.00;47.20;;;;;;4993374;28;20587;-69
2023/07/06 08:51:00;;;;;;;2.40;1.90;;;25.00;47.20;;;;;;4994104;28;20419;-68
2023/07/06 08:53:32;;;;;;;2.53;1.93;;;25.00;47.20;;;;;;4994099;28;20404;-68
2023/07/06 08:56:00;;;;;;;2.90;2.20;;;25.00;47.20;;;;;;4992862;28;20816;-68
2023/07/06 08:58:29;;;;;;;3.00;2.10;;;25.00;47.20;;;;;;4993899;28;20459;-69
2023/07/06 09:01:10;;;;;;;2.10;1.70;;;25.00;47.20;;;;;;4992562;28;20451;-68
2023/07/06 09:03:44;;;;;;;1.73;1.40;;;25.00;47.20;;;;;;4993873;28;20459;-68
2023/07/06 09:06:16;;;;;;;2.83;2.27;;;25.00;47.30;;;;;;4993887;28;20431;-68
2023/07/06 09:08:45;;;;;;;2.27;1.93;;;25.00;47.30;;;;;;4993655;28;20975;-69
2023/07/06 09:11:12;;;;;;;2.37;1.83;;;25.00;47.30;;;;;;4993769;28;20408;-67
2023/07/06 09:13:50;;;;;;;3.43;1.90;;;25.00;47.30;;;;;;4993619;28;20404;-69
2023/07/06 09:16:19;;;;;;;2.47;2.27;;;25.00;47.30;;;;;;4993571;28;20756;-68
2023/07/06 09:18:46;;;;;;;2.37;2.17;;;25.00;47.30;;;;;;4993598;28;20917;-69
2023/07/06 09:21:12;;;;;;;2.23;1.70;;;25.00;47.30;;;;;;4993806;28;20427;-69
2023/07/06 09:23:38;;;;;;;2.10;1.50;;;25.00;47.30;;;;;;4993711;28;20454;-69
2023/07/06 09:26:08;;;;;;;1.80;1.63;;;25.00;47.30;;;;;;4993415;28;20412;-69
2023/07/06 09:28:33;;;;;;;2.70;1.63;;;25.00;47.30;;;;;;4991980;28;20459;-68
2023/07/06 09:31:18;;;;;;;2.30;1.90;;;25.00;47.30;;;;;;4993357;28;20415;-68
2023/07/06 09:33:48;;;;;;;2.07;1.87;;;25.00;47.30;;;;;;4993458;28;20211;-68
2023/07/06 09:36:19;;;;;;;2.03;1.80;;;25.00;47.30;;;;;;4993363;28;20909;-69
2023/07/06 09:38:45;;;;;;;2.10;1.70;;;25.10;47.40;;;;;;4993330;28;20403;-69
2023/07/06 09:41:22;;;;;;;2.80;2.00;;;25.00;47.90;;;;;;4993174;28;20416;-69
2023/07/06 09:43:52;;;;;;;2.83;1.70;;;25.00;47.30;;;;;;4993216;28;20404;-69
2023/07/06 09:46:19;;;;;;;2.07;1.83;;;25.00;47.30;;;;;;4993039;28;20419;-68
2023/07/06 09:48:45;;;;;;;2.10;1.70;;;25.00;47.40;;;;;;4993077;28;20795;-68
2023/07/06 09:51:21;;;;;;;2.77;1.80;;;25.00;47.40;;;;;;4991835;28;20424;-69
2023/07/06 09:54:02;;;;;;;2.20;1.87;;;25.10;47.40;;;;;;4993257;28;20236;-68
2023/07/06 09:56:29;;;;;;;1.93;1.70;;;25.10;47.40;;;;;;4993230;28;20826;-68
2023/07/06 09:58:55;;;;;;;2.20;2.00;;;25.00;47.40;;;;;;4993210;28;20799;-68
2023/07/06 10:01:33;;;;;;;2.27;2.03;;;25.00;47.40;;;;;;4991886;28;20460;-67
2023/07/06 10:04:14;;;;;;;1.90;1.70;;;25.10;47.40;;;;;;4991603;28;20446;-69
2023/07/06 10:07:08;;;;;;;2.30;2.00;;;25.00;47.40;;;;;;4993221;28;20443;-69
2023/07/06 10:09:43;;;;;;;3.40;2.10;;;25.00;47.40;;;;;;4991831;28;20448;-68
2023/07/06 10:12:19;;;;;;;2.00;1.63;;;25.00;47.40;;;;;;4991518;28;20925;-69
2023/07/06 10:14:52;;;;;;;2.00;1.80;;;25.00;47.40;;;;;;4993124;28;20762;-69
2023/07/06 10:17:23;;;;;;;1.80;1.30;;;25.00;47.40;;;;;;4992694;28;20428;-69
2023/07/06 10:20:05;;;;;;;2.13;1.60;;;25.00;47.40;;;;;;4992779;28;20412;-68
2023/07/06 10:22:30;;;;;;;1.87;1.67;;;25.00;47.40;;;;;;4992846;28;20404;-69
2023/07/06 10:25:37;;;;;;;1.97;1.83;;;25.10;47.50;;;;;;4992662;28;20866;-69
2023/07/06 10:28:18;;;;;;;3.13;2.10;;;25.10;47.50;;;;;;4990346;28;20209;-69
2023/07/06 10:30:47;;;;;;;2.90;1.80;;;25.10;47.50;;;;;;4992561;28;20419;-69
2023/07/06 10:33:43;;;;;;;2.03;1.83;;;25.00;47.50;;;;;;4992475;28;20450;-68
2023/07/06 10:36:12;;;;;;;3.53;1.87;;;25.00;47.50;;;;;;4987035;28;20424;-68
2023/07/06 10:38:37;;;;;;;1.90;1.63;;;25.00;47.50;;;;;;4992407;28;20447;-69
2023/07/06 10:41:11;;;;;;;2.73;1.80;;;25.00;47.50;;;;;;4992441;28;20416;-68
2023/07/06 10:43:42;;;;;;;2.27;1.70;;;25.00;47.50;;;;;;4992485;28;20180;-69
2023/07/06 10:46:35;;;;;;;2.10;1.77;;;25.10;47.50;;;;;;4992639;28;20393;-69
2023/07/06 10:49:19;;;;;;;1.90;1.70;;;25.10;47.50;;;;;;4992369;28;20452;-69
2023/07/06 10:51:52;;;;;;;2.13;1.77;;;25.10;47.50;;;;;;4992669;28;20408;-68
2023/07/06 10:54:23;;;;;;;2.60;1.83;;;25.00;47.50;;;;;;4992366;28;20416;-69
2023/07/06 10:57:12;;;;;;;2.63;2.00;;;25.10;47.50;;;;;;4992361;28;20836;-69
2023/07/06 10:59:46;;;;;;;2.23;2.03;;;25.10;47.50;;;;;;4992364;28;20432;-68
2023/07/06 11:02:20;;;;;;;2.97;2.40;;;25.10;47.50;;;;;;4990929;28;20436;-69
2023/07/06 11:05:16;;;;;;;1.87;1.40;;;25.10;47.50;;;;;;4990981;28;20455;-68
2023/07/06 11:07:45;;;;;;;2.23;1.90;;;25.10;47.50;;;;;;4991936;28;20544;-68
2023/07/06 11:10:13;;;;;;;2.10;1.90;;;25.10;47.50;;;;;;4992172;28;20409;-69
2023/07/06 11:12:57;;;;;;;2.70;2.27;;;25.10;47.60;;;;;;4994603;28;20443;-68
2023/07/06 11:15:56;;;;;;;2.47;2.17;;;25.10;47.60;;;;;;4995845;28;20491;-69
2023/07/06 11:18:21;;;;;;;2.10;1.80;;;25.10;47.60;;;;;;4992064;28;20485;-69
2023/07/06 11:21:25;;;;;;;1.83;1.70;;;25.10;47.70;;;;;;4995791;28;20412;-69
2023/07/06 11:24:06;;;;;;;2.20;2.00;;;25.10;47.60;;;;;;4995727;28;20184;-70
2023/07/06 11:26:42;;;;;;;2.20;2.00;;;25.00;47.60;;;;;;4995884;28;20395;-69
2023/07/06 11:29:08;;;;;;;2.50;2.30;;;25.00;47.60;;;;;;4995601;28;20462;-70
2023/07/06 11:31:59;;;;;;;2.40;2.00;;;25.00;47.60;;;;;;4995658;28;20444;-69
2023/07/06 11:34:48;;;;;;;2.53;2.33;;;25.10;47.60;;;;;;4995606;28;20392;-68
2023/07/06 11:37:38;;;;;;;3.00;2.37;;;25.10;47.60;;;;;;4995747;28;20424;-70
2023/07/06 11:40:38;;;;;;;2.43;2.00;;;25.10;47.60;;;;;;4995701;28;20396;-69
2023/07/06 11:43:12;;;;;;;2.97;1.97;;;25.10;47.70;;;;;;4995665;28;20409;-68
2023/07/06 11:45:46;;;;;;;2.33;2.07;;;25.00;47.70;;;;;;4995661;28;20538;-69
2023/07/06 11:48:45;;;;;;;2.60;2.20;;;25.00;47.70;;;;;;4995157;28;20495;-69
2023/07/06 11:51:11;;;;;;;2.20;2.00;;;25.00;47.70;;;;;;4993914;28;20435;-69
2023/07/06 11:53:44;;;;;;;2.60;2.10;;;25.00;47.70;;;;;;4993858;28;20416;-70
2023/07/06 11:56:39;;;;;;;2.67;2.47;;;25.00;47.70;;;;;;4995433;28;20400;-70
2023/07/06 11:59:15;;;;;;;2.47;2.27;;;25.00;47.70;;;;;;4995051;28;20392;-69
2023/07/06 12:01:45;;;;;;;2.40;2.20;;;25.00;47.60;;;;;;4995143;28;20443;-68
2023/07/06 12:04:20;;;;;;;2.53;2.20;;;25.00;47.60;;;;;;4993604;28;20511;-69
2023/07/06 12:06:48;;;;;;;3.33;3.03;;;25.10;47.70;;;;;;4995109;28;20440;-69
2023/07/06 12:09:19;;;;;;;2.33;2.13;;;25.10;47.70;;;;;;4995030;28;20463;-69
2023/07/06 12:12:06;;;;;;;2.93;2.23;;;25.10;47.70;;;;;;4995105;28;20765;-68
2023/07/06 12:14:34;;;;;;;2.33;2.13;;;25.10;47.70;;;;;;4992993;28;20424;-69
2023/07/06 12:17:02;;;;;;;3.27;2.27;;;25.10;47.70;;;;;;4994687;28;20463;-69
2023/07/06 12:19:28;;;;;;;2.50;2.20;;;25.10;47.70;;;;;;4994738;28;20416;-69
2023/07/06 12:21:56;;;;;;;2.37;2.17;;;25.10;47.70;;;;;;4994639;28;20412;-68
2023/07/06 12:24:25;;;;;;;2.40;2.20;;;25.10;47.70;;;;;;4993589;28;20263;-69
2023/07/06 12:26:53;;;;;;;2.20;2.00;;;25.10;47.70;;;;;;4994606;28;20439;-69
2023/07/06 12:29:26;;;;;;;2.97;2.50;;;25.10;47.70;;;;;;4994454;28;20455;-69
2023/07/06 12:31:54;;;;;;;3.80;2.73;;;25.10;47.70;;;;;;4994458;28;20407;-69
2023/07/06 12:34:27;;;;;;;2.57;2.30;;;25.10;48.30;;;;;;4994487;28;20411;-69
2023/07/06 12:36:56;;;;;;;2.53;2.10;;;25.10;47.70;;;;;;4994350;28;20515;-70
2023/07/06 12:39:23;;;;;;;2.30;2.10;;;25.10;47.70;;;;;;4994277;28;20500;-69
2023/07/06 12:41:51;;;;;;;2.37;2.17;;;25.10;47.70;;;;;;4994325;28;20416;-69
2023/07/06 12:44:18;;;;;;;2.80;2.60;;;25.10;47.70;;;;;;4994290;28;20443;-69
2023/07/06 12:46:51;;;;;;;1.93;1.80;;;25.10;47.70;;;;;;4994179;28;20502;-69
2023/07/06 12:49:20;;;;;;;2.87;2.57;;;25.10;47.70;;;;;;4994213;28;20882;-69
2023/07/06 12:51:47;;;;;;;2.60;2.40;;;25.10;47.70;;;;;;4994115;28;20785;-69
2023/07/06 12:54:14;;;;;;;3.57;2.23;;;25.10;47.70;;;;;;4994143;28;20491;-69
2023/07/06 12:56:40;;;;;;;2.37;2.17;;;25.10;47.70;;;;;;4993942;28;20434;-69
2023/07/06 12:59:06;;;;;;;2.80;2.13;;;25.10;47.70;;;;;;4993975;28;20408;-69
2023/07/06 13:01:45;;;;;;;2.27;2.07;;;25.10;47.70;;;;;;4993834;28;20215;-69
2023/07/06 13:04:12;;;;;;;2.40;2.20;;;25.10;47.70;;;;;;4994134;28;20404;-69